This is the latest recevied weather packets stored in our database for station/object CE4ERM-13. If no packets are shown the sender has not sent any weather packets the latest 10 day(s).
| Time | Temp. | Humidity | Pressure | Rain* | Wind** | Luminosity | Snow |
|---|---|---|---|---|---|---|---|
| 1778009781 | 24.44° C | 35% | 1010.9 hPa | - | - | - | - |
| 1778009180 | 23.89° C | 35% | 1011.5 hPa | - | - | - | - |
| 1778008724 | 27.22° C | 32% | 1014 hPa | - | - | - | - |
| 1778008580 | 24.44° C | 34% | 1015.4 hPa | - | - | - | - |
| 1778006779 | 24.44° C | 33% | 1014 hPa | - | - | - | - |
| 1778006322 | 28.33° C | 27% | 1013.6 hPa | - | - | - | - |
| 1778006179 | 24.44° C | 33% | 1016.7 hPa | - | - | - | - |
| 1778005721 | 27.22° C | 29% | 1012.3 hPa | - | - | - | - |
| 1778005579 | 24.44° C | 32% | 1018 hPa | - | - | - | - |
| 1778005350 | 28.33° C | 28% | 1012.2 hPa | - | - | - | - |
| 1778005121 | 28.33° C | 28% | 1012.2 hPa | - | - | - | - |
| 1778003920 | 28.89° C | 26% | 1013.2 hPa | - | - | - | - |
| 1778003320 | 28.89° C | 27% | 1013 hPa | - | - | - | - |
| 1778002577 | 24.44° C | 31% | 1014.7 hPa | - | - | - | - |
| 1778002120 | 29.44° C | 25% | 1014 hPa | - | - | - | - |
| 1778001377 | 23.89° C | 30% | 1014.6 hPa | - | - | - | - |
| 1778000319 | 30° C | 22% | 1013.3 hPa | - | - | - | - |
| 1777999576 | 23.33° C | 31% | 1014.5 hPa | - | - | - | - |
| 1777999117 | 32.22° C | 20% | 1012.3 hPa | - | - | - | - |
| 1777998516 | 32.78° C | 19% | 1012.4 hPa | - | - | - | - |
| 1777997315 | 30.56° C | 21% | 1014.3 hPa | - | - | - | - |
| 1777996715 | 30.56° C | 21% | 1014 hPa | - | - | - | - |
| 1777996573 | 21.67° C | 34% | 1015.2 hPa | - | - | - | - |
| 1777995973 | 21.67° C | 34% | 1015 hPa | - | - | - | - |
| 1777994313 | 28.33° C | 25% | 1014.8 hPa | - | - | - | - |
* Rain since midnight (hover to see other rain measurements)
** Current wind speed in m/s (hover to see current wind gust speed)